Time;durP1;ratioP1;P1;durP2;ratioP2;P2;SDS_P1;SDS_P2;PMS_P1;PMS_P2;Temp;Humidity;BMP_temperature;BMP_pressure;BME280_temperature;BME280_humidity;BME280_pressure;Samples;Min_cycle;Max_cycle;Signal;HPM_P1;HPM_P2
2021/11/09 00:00:23;;;;;;;13.02;7.30;;;4.50;99.90;;;;;;5056074;28;20194;-79
2021/11/09 00:02:51;;;;;;;16.27;7.30;;;4.50;99.90;;;;;;5055592;28;20281;-78
2021/11/09 00:05:20;;;;;;;15.77;7.78;;;4.30;99.90;;;;;;5054546;28;20654;-79
2021/11/09 00:07:50;;;;;;;18.58;8.80;;;4.50;99.90;;;;;;5055111;28;20221;-79
2021/11/09 00:10:18;;;;;;;16.45;8.10;;;4.70;99.90;;;;;;5055454;28;20565;-79
2021/11/09 00:12:48;;;;;;;13.38;7.07;;;4.60;99.90;;;;;;5054780;28;20202;-79
2021/11/09 00:15:18;;;;;;;13.52;8.05;;;4.50;99.90;;;;;;5054388;28;20295;-79
2021/11/09 00:17:46;;;;;;;16.30;8.45;;;4.60;99.90;;;;;;5055230;28;20191;-79
2021/11/09 00:20:18;;;;;;;17.60;8.27;;;4.90;99.90;;;;;;5055334;28;20212;-79
2021/11/09 00:22:46;;;;;;;16.30;8.45;;;4.50;99.90;;;;;;5059129;28;20215;-79
2021/11/09 00:25:15;;;;;;;14.20;7.38;;;4.80;99.90;;;;;;5057540;28;20269;-79
2021/11/09 00:27:41;;;;;;;15.38;8.10;;;4.90;99.90;;;;;;5076799;22;20261;-76
2021/11/09 00:30:11;;;;;;;14.55;6.55;;;4.70;99.90;;;;;;5053570;28;20214;-77
2021/11/09 00:32:42;;;;;;;11.80;6.70;;;4.60;99.90;;;;;;5056568;28;20213;-77
2021/11/09 00:35:11;;;;;;;15.68;7.55;;;4.70;99.90;;;;;;5057243;28;20635;-77
2021/11/09 00:37:40;;;;;;;12.45;6.80;;;4.80;99.90;;;;;;5056908;28;20313;-77
2021/11/09 00:40:09;;;;;;;13.18;7.85;;;4.80;99.90;;;;;;5056909;28;20646;-78
2021/11/09 00:42:37;;;;;;;15.43;8.80;;;4.80;99.90;;;;;;5056903;28;20230;-77
2021/11/09 00:45:04;;;;;;;14.32;7.57;;;4.60;99.90;;;;;;5057322;28;20210;-77
2021/11/09 00:47:31;;;;;;;12.45;7.63;;;4.60;99.90;;;;;;5058158;28;20741;-78
2021/11/09 00:49:58;;;;;;;13.23;7.50;;;4.60;99.90;;;;;;5058261;28;20216;-77
2021/11/09 00:52:25;;;;;;;13.05;7.45;;;4.60;99.90;;;;;;5058058;28;20203;-77
2021/11/09 00:54:54;;;;;;;17.15;8.00;;;4.40;99.90;;;;;;5056921;28;20241;-77
2021/11/09 00:57:21;;;;;;;14.18;8.63;;;4.60;99.90;;;;;;5056707;28;20229;-77
2021/11/09 00:59:48;;;;;;;17.83;8.52;;;4.30;99.90;;;;;;5057274;28;20676;-78
2021/11/09 01:02:15;;;;;;;16.35;9.00;;;4.40;99.90;;;;;;5056420;28;20222;-78
2021/11/09 01:04:42;;;;;;;14.10;8.15;;;4.30;99.90;;;;;;5056270;28;20232;-78
2021/11/09 01:07:09;;;;;;;14.25;8.10;;;4.30;99.90;;;;;;5056699;28;20601;-79
2021/11/09 01:09:36;;;;;;;17.02;8.68;;;4.50;99.90;;;;;;5065924;28;20300;-78
2021/11/09 01:12:06;;;;;;;13.13;7.90;;;4.50;99.90;;;;;;5066303;28;20289;-77
2021/11/09 01:14:33;;;;;;;17.27;8.40;;;4.50;99.90;;;;;;5056897;28;20674;-77
2021/11/09 01:17:00;;;;;;;15.10;6.95;;;4.50;99.90;;;;;;5057849;28;20797;-78
2021/11/09 01:19:31;;;;;;;13.70;7.57;;;4.30;99.90;;;;;;5056924;28;20259;-77
2021/11/09 01:21:58;;;;;;;13.52;9.18;;;4.70;99.90;;;;;;5055795;28;20241;-77
2021/11/09 01:24:25;;;;;;;16.85;8.65;;;4.70;99.90;;;;;;5055910;28;20206;-77
2021/11/09 01:26:52;;;;;;;20.75;8.75;;;4.80;99.90;;;;;;5056408;28;20238;-77
2021/11/09 01:29:20;;;;;;;14.00;8.32;;;4.70;99.90;;;;;;5058590;28;20213;-77
2021/11/09 01:31:48;;;;;;;16.20;9.00;;;4.70;99.90;;;;;;5058503;28;20576;-77
2021/11/09 01:34:15;;;;;;;12.80;8.05;;;4.70;99.90;;;;;;5056463;28;20210;-77
2021/11/09 01:36:42;;;;;;;24.50;8.57;;;4.70;99.90;;;;;;5055865;28;20236;-77
2021/11/09 01:39:10;;;;;;;15.05;7.80;;;4.70;99.90;;;;;;5056134;28;20292;-77
2021/11/09 01:41:37;;;;;;;12.05;7.30;;;4.90;99.90;;;;;;5055536;28;20688;-77
2021/11/09 01:44:05;;;;;;;13.65;7.90;;;4.90;99.90;;;;;;5057923;28;20217;-77
2021/11/09 01:46:34;;;;;;;16.45;9.13;;;5.10;99.90;;;;;;5055952;28;20236;-77
2021/11/09 01:49:02;;;;;;;12.05;7.60;;;5.00;99.90;;;;;;5056039;28;20217;-77
2021/11/09 01:51:30;;;;;;;19.45;8.55;;;4.80;99.90;;;;;;5057594;28;20559;-78
2021/11/09 01:53:57;;;;;;;15.38;9.07;;;4.90;99.90;;;;;;5055770;28;20675;-77
2021/11/09 01:56:27;;;;;;;13.65;8.43;;;4.70;99.90;;;;;;5055206;28;20261;-76
2021/11/09 01:58:55;;;;;;;12.20;8.05;;;4.90;99.90;;;;;;5055190;28;20218;-77
2021/11/09 02:01:22;;;;;;;15.25;8.68;;;4.80;99.90;;;;;;5055582;28;20222;-77
2021/11/09 02:03:53;;;;;;;15.80;8.20;;;4.90;99.90;;;;;;5055217;28;20685;-77
2021/11/09 02:06:22;;;;;;;11.85;7.85;;;4.80;99.90;;;;;;5055478;28;20226;-77
2021/11/09 02:08:49;;;;;;;13.65;8.63;;;4.70;99.90;;;;;;5054961;28;20208;-77
2021/11/09 02:11:16;;;;;;;11.45;7.45;;;4.70;99.90;;;;;;5054836;28;20206;-76
2021/11/09 02:13:44;;;;;;;22.65;8.73;;;4.80;99.90;;;;;;5059329;28;20206;-77
2021/11/09 02:16:11;;;;;;;20.20;8.30;;;4.70;99.90;;;;;;5062567;28;20258;-76
2021/11/09 02:18:38;;;;;;;14.90;8.02;;;5.10;99.90;;;;;;5059662;28;20270;-77
2021/11/09 02:21:09;;;;;;;16.08;8.40;;;5.20;99.90;;;;;;5058341;28;20214;-77
2021/11/09 02:23:37;;;;;;;18.35;9.85;;;5.00;99.90;;;;;;5056544;28;20190;-77
2021/11/09 02:26:05;;;;;;;13.90;8.00;;;4.90;99.90;;;;;;5061437;28;20269;-77
2021/11/09 02:28:32;;;;;;;16.92;8.40;;;4.70;99.90;;;;;;5056429;28;20202;-78
2021/11/09 02:30:59;;;;;;;15.27;8.75;;;4.80;99.90;;;;;;5055165;28;20210;-78
2021/11/09 02:33:26;;;;;;;13.48;8.77;;;4.90;99.90;;;;;;5055580;28;20571;-77
2021/11/09 02:35:53;;;;;;;14.52;8.88;;;4.90;99.90;;;;;;5055632;28;20212;-77
2021/11/09 02:38:22;;;;;;;20.23;8.85;;;4.90;99.90;;;;;;5055878;28;20691;-77
2021/11/09 02:40:49;;;;;;;15.70;7.82;;;5.00;99.90;;;;;;5055624;28;20257;-77
2021/11/09 02:43:17;;;;;;;18.65;8.95;;;4.90;99.90;;;;;;5055012;28;20717;-77
2021/11/09 02:45:52;;;;;;;17.58;8.88;;;4.90;99.90;;;;;;5054344;28;20237;-78
2021/11/09 02:48:22;;;;;;;18.25;8.52;;;4.90;99.90;;;;;;5054443;28;20196;-78
2021/11/09 02:50:53;;;;;;;14.55;8.80;;;4.90;99.90;;;;;;5054616;28;20298;-77
2021/11/09 02:53:31;;;;;;;14.32;8.63;;;5.10;99.90;;;;;;5053742;28;20221;-77
2021/11/09 02:56:03;;;;;;;14.30;8.73;;;5.10;99.90;;;;;;5054665;28;20193;-77
2021/11/09 02:58:42;;;;;;;17.42;9.35;;;5.10;99.90;;;;;;5055320;28;20202;-78
2021/11/09 03:01:12;;;;;;;12.23;8.93;;;4.90;99.90;;;;;;5054328;28;20650;-78
2021/11/09 03:03:43;;;;;;;16.25;9.07;;;5.10;99.90;;;;;;5054458;28;20557;-77
2021/11/09 03:06:25;;;;;;;15.18;8.82;;;5.10;99.90;;;;;;5054624;28;20779;-77
2021/11/09 03:08:57;;;;;;;13.02;8.30;;;5.00;99.90;;;;;;5054422;28;20273;-77
2021/11/09 03:11:25;;;;;;;15.48;9.10;;;4.80;99.90;;;;;;5054149;28;20186;-77
2021/11/09 03:13:52;;;;;;;15.40;7.88;;;5.20;99.90;;;;;;5054390;28;20221;-77
2021/11/09 03:16:20;;;;;;;13.82;8.65;;;5.00;99.90;;;;;;5053642;28;20232;-78
2021/11/09 03:18:50;;;;;;;18.33;10.50;;;5.30;99.90;;;;;;5053422;28;20674;-77
2021/11/09 03:40:29;;;;;;;14.68;8.25;;;5.10;99.90;;;;;;5056056;28;20216;-78
2021/11/09 03:45:41;;;;;;;19.80;10.52;;;5.20;99.90;;;;;;5054746;28;20273;-78
2021/11/09 03:48:10;;;;;;;17.38;9.35;;;5.00;99.90;;;;;;5054984;28;20246;-78
2021/11/09 03:50:39;;;;;;;17.27;9.13;;;5.10;99.90;;;;;;5055683;28;20203;-77
2021/11/09 03:53:11;;;;;;;14.38;9.85;;;5.20;99.90;;;;;;5053902;28;20208;-78
2021/11/09 03:55:53;;;;;;;12.52;8.13;;;5.10;99.90;;;;;;5053963;28;20187;-77
2021/11/09 03:58:25;;;;;;;14.93;9.70;;;5.00;99.90;;;;;;5054460;28;20257;-77
2021/11/09 04:00:56;;;;;;;15.20;8.98;;;5.00;99.90;;;;;;5053949;28;20191;-77
2021/11/09 04:03:34;;;;;;;15.80;10.00;;;5.00;99.90;;;;;;5054200;28;20304;-77
2021/11/09 04:06:10;;;;;;;14.73;8.73;;;5.00;99.90;;;;;;5057533;28;20198;-77
2021/11/09 04:08:42;;;;;;;15.23;8.95;;;4.90;99.90;;;;;;5057906;28;20271;-77
2021/11/09 04:11:15;;;;;;;14.57;9.20;;;4.80;99.90;;;;;;5057852;28;20191;-77
2021/11/09 04:13:47;;;;;;;16.85;9.20;;;4.80;99.90;;;;;;5057605;28;20273;-77
2021/11/09 04:16:28;;;;;;;17.30;10.00;;;4.60;99.90;;;;;;5057779;28;20226;-77
2021/11/09 04:19:01;;;;;;;16.77;9.70;;;4.50;99.90;;;;;;5057516;28;20220;-78
2021/11/09 04:21:43;;;;;;;23.50;9.38;;;4.60;99.90;;;;;;5057551;28;20285;-77
2021/11/09 04:27:14;;;;;;;13.95;8.95;;;4.70;99.90;;;;;;5051363;28;20218;-77
2021/11/09 04:30:00;;;;;;;14.63;9.40;;;4.60;99.90;;;;;;5057306;28;20198;-77
2021/11/09 05:02:50;;;;;;;15.70;9.38;;;4.40;99.90;;;;;;5056492;28;20295;-77
2021/11/09 05:08:27;;;;;;;16.92;9.00;;;4.20;99.90;;;;;;5056545;28;20709;-77
2021/11/09 05:10:56;;;;;;;15.65;9.88;;;4.20;99.90;;;;;;5057586;28;20210;-76
2021/11/09 05:13:24;;;;;;;14.35;8.38;;;4.10;99.90;;;;;;5062247;28;20252;-76
2021/11/09 05:15:53;;;;;;;20.88;9.88;;;4.00;99.90;;;;;;5059817;28;20210;-76
2021/11/09 05:18:20;;;;;;;14.73;8.77;;;4.20;99.90;;;;;;5058269;28;20202;-76
2021/11/09 05:20:47;;;;;;;15.00;8.80;;;4.20;99.90;;;;;;5061980;28;20620;-78
2021/11/09 05:23:14;;;;;;;13.27;9.27;;;4.20;99.90;;;;;;5063319;28;20313;-78
2021/11/09 05:25:41;;;;;;;19.23;9.77;;;4.20;99.90;;;;;;5059739;28;20700;-77
2021/11/09 05:28:09;;;;;;;14.30;9.43;;;4.20;99.90;;;;;;5056554;28;20269;-77
2021/11/09 05:30:37;;;;;;;15.68;9.95;;;4.00;99.90;;;;;;5056850;28;20625;-77
2021/11/09 05:33:06;;;;;;;14.68;8.32;;;4.40;99.90;;;;;;5056724;28;20212;-76
2021/11/09 05:35:34;;;;;;;17.90;8.82;;;4.20;99.90;;;;;;5056025;28;20210;-77
2021/11/09 05:38:03;;;;;;;15.98;9.18;;;4.10;99.90;;;;;;5057017;28;20238;-78
2021/11/09 05:40:32;;;;;;;17.65;8.18;;;4.10;99.90;;;;;;5055922;28;20202;-78
2021/11/09 05:43:01;;;;;;;16.25;9.70;;;4.10;99.90;;;;;;5055422;28;20602;-77
2021/11/09 05:45:28;;;;;;;13.80;8.68;;;4.00;99.90;;;;;;5055445;28;20202;-77
2021/11/09 05:47:56;;;;;;;12.45;7.72;;;3.80;99.90;;;;;;5055843;28;20226;-78
2021/11/09 05:50:25;;;;;;;12.32;8.23;;;3.90;99.90;;;;;;5056444;28;20214;-77
2021/11/09 05:52:52;;;;;;;14.02;7.97;;;4.10;99.90;;;;;;5055868;28;20197;-77
2021/11/09 05:55:19;;;;;;;17.52;7.90;;;3.90;99.90;;;;;;5055960;28;20614;-77
2021/11/09 05:57:46;;;;;;;18.17;8.77;;;3.80;99.90;;;;;;5056838;28;20756;-77
2021/11/09 06:00:15;;;;;;;14.70;7.45;;;4.00;99.90;;;;;;5056207;28;20218;-77
2021/11/09 06:02:42;;;;;;;19.08;8.60;;;4.00;99.90;;;;;;5055807;28;20222;-77
2021/11/09 06:05:09;;;;;;;14.48;8.68;;;3.90;99.90;;;;;;5055380;28;20202;-77
2021/11/09 06:07:38;;;;;;;15.68;8.30;;;3.80;99.90;;;;;;5054777;28;20305;-77
2021/11/09 06:10:06;;;;;;;12.85;8.15;;;3.90;99.90;;;;;;5055132;28;20213;-77
2021/11/09 06:12:34;;;;;;;11.93;8.80;;;3.80;99.90;;;;;;5055171;28;20690;-79
2021/11/09 06:15:01;;;;;;;14.38;8.38;;;4.00;99.90;;;;;;5054809;28;20206;-76
2021/11/09 06:17:27;;;;;;;20.50;9.55;;;4.00;99.90;;;;;;5054824;28;20729;-77
2021/11/09 06:19:54;;;;;;;16.30;8.48;;;3.80;99.90;;;;;;5055046;28;20297;-77
2021/11/09 06:22:22;;;;;;;14.88;8.18;;;4.00;99.90;;;;;;5054583;28;20210;-77
2021/11/09 06:24:51;;;;;;;13.82;8.75;;;3.90;99.90;;;;;;5054689;28;20209;-78
2021/11/09 06:27:17;;;;;;;14.73;8.77;;;3.80;99.90;;;;;;5054627;28;20272;-77
2021/11/09 06:29:44;;;;;;;13.25;7.93;;;3.80;99.90;;;;;;5055506;28;20206;-78
2021/11/09 06:32:12;;;;;;;12.90;7.93;;;3.90;99.90;;;;;;5056479;28;20202;-78
2021/11/09 06:34:38;;;;;;;15.43;7.93;;;3.80;99.90;;;;;;5058858;28;20202;-79
2021/11/09 06:39:33;;;;;;;14.90;8.48;;;3.80;99.90;;;;;;5037794;28;20221;-81
2021/11/09 06:42:01;;;;;;;12.70;8.55;;;3.70;99.90;;;;;;5037504;28;20215;-78
2021/11/09 06:44:28;;;;;;;16.60;8.50;;;4.00;99.90;;;;;;5035530;28;20280;-77
2021/11/09 06:46:55;;;;;;;15.75;8.90;;;3.90;99.90;;;;;;5034808;28;20219;-77
2021/11/09 06:49:22;;;;;;;19.55;7.88;;;4.20;99.90;;;;;;5034185;28;20262;-79
2021/11/09 06:51:49;;;;;;;13.95;8.55;;;4.00;99.90;;;;;;5038606;28;20316;-80
2021/11/09 06:54:16;;;;;;;16.30;9.02;;;4.20;99.90;;;;;;5038869;28;20297;-79
2021/11/09 06:56:43;;;;;;;16.52;8.90;;;4.20;99.90;;;;;;5036784;28;20207;-84
2021/11/09 06:59:14;;;;;;;14.20;8.32;;;4.10;99.90;;;;;;5033592;28;20659;-76
2021/11/09 07:01:43;;;;;;;10.20;8.52;;;4.00;99.90;;;;;;5033501;28;20654;-77
2021/11/09 07:04:10;;;;;;;17.67;9.48;;;3.90;99.90;;;;;;5033052;28;20336;-76
2021/11/09 07:06:36;;;;;;;19.55;8.82;;;3.90;99.90;;;;;;5032919;28;20207;-76
2021/11/09 07:09:03;;;;;;;17.27;9.63;;;3.90;99.90;;;;;;5033398;28;20319;-77
2021/11/09 07:11:30;;;;;;;20.20;8.48;;;4.00;99.90;;;;;;5033145;28;20206;-77
2021/11/09 07:13:57;;;;;;;14.88;8.77;;;4.10;99.90;;;;;;5033098;28;20203;-77
2021/11/09 07:16:26;;;;;;;13.55;10.23;;;3.90;99.90;;;;;;5032826;28;20203;-77
2021/11/09 07:18:59;;;;;;;15.32;8.73;;;3.90;99.90;;;;;;5032756;28;20227;-77
2021/11/09 07:21:26;;;;;;;17.92;9.02;;;4.00;99.90;;;;;;5033543;28;20187;-77
2021/11/09 07:23:52;;;;;;;14.50;8.50;;;4.10;99.90;;;;;;5033490;28;20317;-77
2021/11/09 07:26:19;;;;;;;17.20;8.75;;;4.10;99.90;;;;;;5034549;28;20589;-77
2021/11/09 07:28:46;;;;;;;14.13;8.30;;;4.20;99.90;;;;;;5040608;28;20231;-77
2021/11/09 07:31:16;;;;;;;13.05;9.10;;;4.20;99.90;;;;;;5034384;28;20276;-78
2021/11/09 07:33:45;;;;;;;13.63;9.02;;;4.20;99.90;;;;;;5034336;28;20225;-78
2021/11/09 07:36:12;;;;;;;17.52;8.43;;;4.10;99.90;;;;;;5034639;28;20555;-78
2021/11/09 07:38:39;;;;;;;17.55;8.27;;;4.40;99.90;;;;;;5034969;28;20242;-76
2021/11/09 07:41:08;;;;;;;15.23;8.57;;;4.20;99.90;;;;;;5035392;28;20679;-79
2021/11/09 07:43:35;;;;;;;16.08;8.85;;;4.20;99.90;;;;;;5042237;28;20297;-80
2021/11/09 07:46:02;;;;;;;14.45;8.40;;;4.20;99.90;;;;;;5037535;28;20211;-80
2021/11/09 07:48:28;;;;;;;17.83;10.80;;;4.40;99.90;;;;;;5045853;28;20240;-79
2021/11/09 07:50:57;;;;;;;15.52;8.90;;;4.20;99.90;;;;;;5034304;28;20213;-77
2021/11/09 07:53:29;;;;;;;13.23;8.45;;;4.30;99.90;;;;;;5032587;28;20630;-77
2021/11/09 07:56:07;;;;;;;13.43;9.18;;;4.40;99.90;;;;;;5033639;28;20624;-78
2021/11/09 07:58:40;;;;;;;15.23;10.05;;;4.60;99.90;;;;;;5032987;28;20227;-78
2021/11/09 08:01:08;;;;;;;14.23;9.57;;;4.50;99.90;;;;;;5033234;28;20191;-77
2021/11/09 08:03:39;;;;;;;20.23;10.45;;;4.80;99.90;;;;;;5032511;28;20231;-77
2021/11/09 08:06:15;;;;;;;16.20;9.52;;;4.70;99.90;;;;;;5035168;28;20191;-78
2021/11/09 08:08:53;;;;;;;14.20;9.30;;;4.60;99.90;;;;;;5038868;28;20603;-78
2021/11/09 08:11:20;;;;;;;19.90;9.88;;;4.90;99.90;;;;;;5035401;28;20237;-78
2021/11/09 08:13:47;;;;;;;17.65;9.65;;;4.90;99.90;;;;;;5037386;28;20213;-79
2021/11/09 08:16:14;;;;;;;14.88;10.35;;;5.10;99.90;;;;;;5034424;28;20216;-79
2021/11/09 08:18:41;;;;;;;13.95;8.85;;;5.00;99.90;;;;;;5034457;28;20237;-79
2021/11/09 08:21:09;;;;;;;19.23;10.60;;;5.30;99.90;;;;;;5037986;28;20306;-77
2021/11/09 08:23:36;;;;;;;19.05;10.52;;;5.30;99.90;;;;;;5043373;28;20321;-79
2021/11/09 08:26:04;;;;;;;16.40;9.35;;;5.50;99.90;;;;;;5047551;28;20192;-78
2021/11/09 08:28:31;;;;;;;17.83;10.85;;;5.50;99.90;;;;;;5043160;28;20233;-78
2021/11/09 08:31:03;;;;;;;18.70;11.45;;;5.70;99.90;;;;;;5038698;28;20249;-78
2021/11/09 08:33:30;;;;;;;25.13;10.88;;;5.90;99.90;;;;;;5032412;28;20206;-76
2021/11/09 08:36:01;;;;;;;22.80;12.30;;;6.00;99.90;;;;;;5032423;28;20389;-77
2021/11/09 08:38:29;;;;;;;20.13;10.70;;;6.20;99.90;;;;;;5032770;28;20273;-77
2021/11/09 08:40:59;;;;;;;15.02;10.07;;;6.20;99.90;;;;;;5033040;28;20218;-77
2021/11/09 08:43:29;;;;;;;20.77;11.13;;;6.20;99.90;;;;;;5033131;28;20230;-78
2021/11/09 08:45:58;;;;;;;20.02;10.25;;;6.00;99.90;;;;;;5033212;28;20644;-77
2021/11/09 08:48:27;;;;;;;16.58;11.20;;;6.20;99.90;;;;;;5034887;28;20227;-77
2021/11/09 08:50:55;;;;;;;19.35;10.98;;;6.10;99.90;;;;;;5035156;28;20199;-77
2021/11/09 08:53:26;;;;;;;17.80;10.55;;;6.00;99.90;;;;;;5038281;28;20257;-77
2021/11/09 08:56:14;;;;;;;17.30;10.40;;;6.10;99.90;;;;;;5037468;28;20202;-77
2021/11/09 09:04:23;;;;;;;17.27;10.38;;;6.30;99.90;;;;;;5036667;28;20317;-78
2021/11/09 09:06:53;;;;;;;19.45;11.68;;;6.40;99.90;;;;;;5037468;28;20210;-78
2021/11/09 09:09:20;;;;;;;20.30;11.88;;;6.50;99.90;;;;;;5038824;28;20703;-78
2021/11/09 09:11:50;;;;;;;24.50;12.15;;;6.40;99.90;;;;;;5037645;28;20206;-79
2021/11/09 09:14:18;;;;;;;21.00;10.98;;;6.50;99.90;;;;;;5036572;28;20301;-77
2021/11/09 09:16:46;;;;;;;13.73;9.82;;;6.70;99.90;;;;;;5037122;28;20212;-77
2021/11/09 09:19:14;;;;;;;19.38;10.32;;;7.00;99.90;;;;;;5041955;28;20227;-78
2021/11/09 09:21:44;;;;;;;15.10;10.07;;;7.00;99.90;;;;;;5036131;28;20695;-78
2021/11/09 09:24:20;;;;;;;17.55;11.00;;;6.90;99.90;;;;;;5036089;28;20210;-78
2021/11/09 09:26:53;;;;;;;15.15;8.82;;;7.20;99.90;;;;;;5038274;28;20640;-78
2021/11/09 09:32:29;;;;;;;13.57;7.18;;;7.60;99.90;;;;;;5050992;28;20682;-77
2021/11/09 09:54:42;;;;;;;18.25;10.70;;;7.60;99.90;;;;;;5036656;28;20187;-78
2021/11/09 09:57:09;;;;;;;17.85;8.93;;;7.50;99.90;;;;;;5035121;28;20603;-77
2021/11/09 09:59:39;;;;;;;16.00;8.73;;;7.70;99.90;;;;;;5036398;28;20676;-77
2021/11/09 10:02:10;;;;;;;25.83;8.75;;;7.80;99.90;;;;;;5035441;28;20192;-78
2021/11/09 10:04:40;;;;;;;14.80;7.60;;;8.00;99.90;;;;;;5035651;28;20306;-78
2021/11/09 10:07:08;;;;;;;14.20;9.05;;;7.70;99.90;;;;;;5035686;28;20214;-79
2021/11/09 10:09:40;;;;;;;20.50;8.73;;;8.00;99.90;;;;;;5036020;28;20218;-79
2021/11/09 10:12:18;;;;;;;16.45;8.65;;;8.10;99.90;;;;;;5036133;28;20197;-79
2021/11/09 10:14:48;;;;;;;12.98;8.25;;;8.20;99.90;;;;;;5036695;28;20656;-80
2021/11/09 10:17:16;;;;;;;14.18;6.57;;;8.30;99.90;;;;;;5037536;28;20211;-78
2021/11/09 10:19:43;;;;;;;10.90;6.15;;;8.50;99.90;;;;;;5036979;28;20665;-79
2021/11/09 10:22:20;;;;;;;8.55;5.70;;;8.50;99.90;;;;;;5036708;28;20205;-79
2021/11/09 10:24:52;;;;;;;10.70;5.90;;;8.50;99.90;;;;;;5036596;28;20253;-78
2021/11/09 10:27:20;;;;;;;9.52;5.30;;;8.60;99.90;;;;;;5036934;28;20191;-78
2021/11/09 10:29:51;;;;;;;8.93;4.53;;;8.60;99.90;;;;;;5044838;28;20223;-79
2021/11/09 10:32:21;;;;;;;8.48;4.68;;;8.80;99.90;;;;;;5041737;28;20208;-79
2021/11/09 10:34:48;;;;;;;12.82;5.43;;;8.80;99.90;;;;;;5040445;28;20230;-78
2021/11/09 10:37:18;;;;;;;8.95;4.28;;;8.90;99.90;;;;;;5037744;28;20212;-79
2021/11/09 10:39:46;;;;;;;10.13;4.85;;;8.90;99.90;;;;;;5035768;28;20188;-81
2021/11/09 10:42:14;;;;;;;11.15;4.28;;;9.10;99.90;;;;;;5035968;28;20216;-78
2021/11/09 10:44:43;;;;;;;7.95;4.13;;;9.00;99.90;;;;;;5036777;28;20223;-79
2021/11/09 10:47:23;;;;;;;6.55;3.63;;;9.20;99.90;;;;;;5036463;28;20216;-78
2021/11/09 10:49:56;;;;;;;8.32;4.18;;;9.20;99.90;;;;;;5038254;28;20256;-78
2021/11/09 10:52:27;;;;;;;8.45;3.83;;;9.30;99.90;;;;;;5036170;28;20227;-78
2021/11/09 10:55:03;;;;;;;8.80;4.55;;;9.30;99.90;;;;;;5035654;28;20235;-78
2021/11/09 10:58:00;;;;;;;10.95;4.60;;;9.40;99.90;;;;;;5035673;28;20290;-78
2021/11/09 11:00:56;;;;;;;9.90;4.78;;;9.30;99.90;;;;;;5036785;28;20194;-79
2021/11/09 11:03:31;;;;;;;9.85;4.63;;;9.40;99.90;;;;;;5036117;28;20808;-80
2021/11/09 11:06:10;;;;;;;11.02;4.55;;;9.40;99.90;;;;;;5042689;28;20192;-77
2021/11/09 11:08:38;;;;;;;8.65;4.45;;;9.60;99.90;;;;;;5038653;28;20224;-78
2021/11/09 11:11:19;;;;;;;8.60;4.25;;;9.70;99.90;;;;;;5035461;28;20224;-78
2021/11/09 11:13:46;;;;;;;9.23;3.88;;;9.60;99.90;;;;;;5037454;28;20207;-79
2021/11/09 11:16:16;;;;;;;8.63;4.18;;;9.80;99.90;;;;;;5046895;28;20262;-77
2021/11/09 11:18:46;;;;;;;11.85;4.05;;;9.70;99.90;;;;;;5046716;28;20288;-78
2021/11/09 11:21:16;;;;;;;10.38;4.93;;;9.90;99.90;;;;;;5043883;28;20204;-79
2021/11/09 11:23:44;;;;;;;10.20;4.10;;;9.80;99.90;;;;;;5039199;28;20247;-80
2021/11/09 11:26:12;;;;;;;10.45;4.30;;;10.00;99.90;;;;;;5042541;28;20524;-79
2021/11/09 11:28:41;;;;;;;12.63;4.68;;;10.00;99.90;;;;;;5036021;28;20227;-79
2021/11/09 11:31:10;;;;;;;9.02;4.35;;;10.20;99.90;;;;;;5036512;28;20279;-77
2021/11/09 11:33:38;;;;;;;11.10;3.80;;;10.10;99.90;;;;;;5036449;28;20220;-79
2021/11/09 11:36:08;;;;;;;9.40;3.92;;;10.10;99.90;;;;;;5035766;28;20452;-80
2021/11/09 11:38:39;;;;;;;8.20;5.15;;;10.10;99.90;;;;;;5035474;28;20241;-78
2021/11/09 11:41:06;;;;;;;9.98;4.88;;;10.20;99.90;;;;;;5035000;28;20212;-76
2021/11/09 11:43:53;;;;;;;7.67;4.40;;;10.20;99.90;;;;;;5034992;28;20209;-79
2021/11/09 11:46:49;;;;;;;8.77;4.23;;;10.20;99.90;;;;;;5036799;28;20455;-80
2021/11/09 11:49:18;;;;;;;10.60;4.75;;;10.30;99.90;;;;;;5035036;28;20445;-78
2021/11/09 11:52:28;;;;;;;7.97;4.63;;;10.30;99.90;;;;;;5036096;28;20205;-78
2021/11/09 11:55:08;;;;;;;7.00;3.65;;;10.40;99.90;;;;;;5035981;28;20280;-79
2021/11/09 11:57:47;;;;;;;11.70;4.72;;;10.50;99.90;;;;;;5034529;28;20232;-77
2021/11/09 12:00:41;;;;;;;9.90;4.53;;;10.40;99.90;;;;;;5035800;28;20550;-76
2021/11/09 12:03:40;;;;;;;10.07;4.73;;;10.40;99.90;;;;;;5035337;28;20436;-78
2021/11/09 12:06:25;;;;;;;8.00;4.20;;;10.50;99.90;;;;;;5034132;28;20500;-77
2021/11/09 12:08:55;;;;;;;8.95;3.60;;;10.80;99.90;;;;;;5034072;28;20233;-80
2021/11/09 12:11:40;;;;;;;6.30;3.33;;;10.60;99.90;;;;;;5036519;28;20201;-78
2021/11/09 12:14:09;;;;;;;6.60;3.33;;;10.60;99.90;;;;;;5035195;28;20442;-77
2021/11/09 12:16:52;;;;;;;6.80;3.80;;;10.60;99.90;;;;;;5034603;28;20455;-77
2021/11/09 12:19:47;;;;;;;11.80;3.50;;;10.60;99.90;;;;;;5032801;28;20489;-79
2021/11/09 12:22:16;;;;;;;9.00;2.80;;;10.60;99.90;;;;;;5034829;28;20540;-79
2021/11/09 12:24:50;;;;;;;6.33;3.20;;;10.70;99.90;;;;;;5035060;28;20473;-79
2021/11/09 12:27:18;;;;;;;8.53;3.47;;;10.60;99.90;;;;;;5039889;28;20468;-79
2021/11/09 12:29:48;;;;;;;11.47;3.20;;;10.60;99.90;;;;;;5041147;28;20456;-77
2021/11/09 12:32:39;;;;;;;6.90;2.80;;;10.70;99.90;;;;;;5044446;28;20436;-78
2021/11/09 12:35:19;;;;;;;5.63;3.30;;;10.70;99.90;;;;;;5044576;28;20494;-77
2021/11/09 12:38:06;;;;;;;8.67;2.80;;;10.70;99.90;;;;;;5044045;28;20851;-78
2021/11/09 12:40:36;;;;;;;7.30;3.10;;;10.80;99.90;;;;;;5045729;28;20475;-78
2021/11/09 12:43:18;;;;;;;9.80;5.20;;;10.90;99.90;;;;;;5053891;28;20444;-79
2021/11/09 12:45:49;;;;;;;6.83;3.53;;;10.90;99.70;;;;;;5041235;28;20471;-80
2021/11/09 12:48:22;;;;;;;4.93;2.67;;;10.90;99.50;;;;;;5042057;28;20467;-79
2021/11/09 12:50:54;;;;;;;8.65;3.22;;;10.80;99.80;;;;;;5044621;28;20435;-79
2021/11/09 12:53:24;;;;;;;11.43;3.53;;;10.80;99.50;;;;;;5040015;28;20753;-79
2021/11/09 12:56:14;;;;;;;6.33;3.47;;;10.90;99.60;;;;;;5040319;28;20546;-79
2021/11/09 12:58:51;;;;;;;9.37;3.50;;;11.00;99.20;;;;;;5038357;28;20488;-78
2021/11/09 13:01:34;;;;;;;10.47;3.57;;;11.00;99.00;;;;;;5038569;28;20952;-80
2021/11/09 13:04:09;;;;;;;7.17;3.00;;;11.20;98.80;;;;;;5039715;28;20497;-79
2021/11/09 13:06:42;;;;;;;9.17;3.20;;;11.20;98.60;;;;;;5036784;28;20493;-79
2021/11/09 13:09:16;;;;;;;8.27;3.67;;;11.20;98.80;;;;;;5037141;28;20472;-78
2021/11/09 13:11:49;;;;;;;8.60;4.33;;;11.10;98.90;;;;;;5038880;28;20443;-78
2021/11/09 13:14:17;;;;;;;12.50;5.90;;;11.00;98.90;;;;;;5044051;28;20433;-77
2021/11/09 13:16:45;;;;;;;8.37;4.07;;;11.00;99.00;;;;;;5039184;28;20968;-78
2021/11/09 13:19:12;;;;;;;6.03;3.60;;;11.10;99.00;;;;;;5038120;28;20601;-78
2021/11/09 13:21:40;;;;;;;8.80;3.70;;;11.20;99.00;;;;;;5037760;28;20209;-78
2021/11/09 13:24:08;;;;;;;10.15;3.38;;;11.30;98.40;;;;;;5036360;28;20460;-78
2021/11/09 13:26:35;;;;;;;6.53;3.60;;;11.20;98.20;;;;;;5036538;28;20220;-78
2021/11/09 13:29:08;;;;;;;8.20;3.97;;;11.20;98.20;;;;;;5036291;28;20469;-78
2021/11/09 13:31:36;;;;;;;7.10;3.40;;;11.10;98.50;;;;;;5037304;28;20893;-78
2021/11/09 13:34:05;;;;;;;10.43;4.80;;;11.00;98.60;;;;;;5037542;28;20775;-78
2021/11/09 13:36:32;;;;;;;7.93;3.30;;;11.00;98.40;;;;;;5036997;28;20441;-78
2021/11/09 13:39:00;;;;;;;13.03;4.50;;;11.00;98.20;;;;;;5047624;28;20551;-78
2021/11/09 13:41:32;;;;;;;7.70;3.53;;;11.00;98.40;;;;;;5041040;28;20463;-77
2021/11/09 13:44:02;;;;;;;9.03;2.83;;;10.90;98.10;;;;;;5035030;28;20973;-77
2021/11/09 13:46:34;;;;;;;7.63;3.10;;;10.90;98.50;;;;;;5037071;28;20456;-78
2021/11/09 13:49:03;;;;;;;9.30;3.40;;;11.00;98.40;;;;;;5041552;28;20479;-78
2021/11/09 13:51:39;;;;;;;10.83;3.60;;;11.00;98.30;;;;;;5036456;28;20606;-77
2021/11/09 13:54:14;;;;;;;6.57;3.30;;;10.90;98.20;;;;;;5037016;28;20480;-79
2021/11/09 13:56:42;;;;;;;7.53;3.60;;;10.90;98.40;;;;;;5041829;28;20471;-79
2021/11/09 13:59:11;;;;;;;8.30;3.30;;;11.00;98.30;;;;;;5041217;28;20790;-77
2021/11/09 14:01:44;;;;;;;6.67;3.17;;;11.00;97.90;;;;;;5042897;28;20557;-82
2021/11/09 14:04:34;;;;;;;7.13;4.17;;;11.10;98.10;;;;;;5042397;28;20467;-78
2021/11/09 14:07:32;;;;;;;7.63;3.57;;;11.20;98.00;;;;;;5042073;28;20437;-78
2021/11/09 14:18:50;;;;;;;8.00;3.60;;;11.30;97.60;;;;;;5158636;27;20621;-78
2021/11/09 14:21:17;;;;;;;8.00;3.60;;;11.50;97.40;;;;;;5155569;27;20882;-78
2021/11/09 14:23:44;;;;;;;5.60;3.33;;;11.40;97.20;;;;;;5159070;27;20515;-77
2021/11/09 14:26:20;;;;;;;6.10;2.83;;;11.40;97.50;;;;;;5156223;27;20459;-78
2021/11/09 14:28:48;;;;;;;10.17;3.03;;;11.50;97.20;;;;;;5155979;27;20467;-78
2021/11/09 14:31:18;;;;;;;7.30;3.17;;;11.30;97.20;;;;;;5155525;27;20455;-80
2021/11/09 14:33:48;;;;;;;7.73;3.00;;;11.30;97.30;;;;;;5154988;27;20444;-78
2021/11/09 14:36:29;;;;;;;6.93;2.93;;;11.20;97.30;;;;;;5154986;27;20541;-77
2021/11/09 14:39:15;;;;;;;11.03;3.33;;;11.20;97.40;;;;;;5154843;27;20471;-79
2021/11/09 14:42:05;;;;;;;8.20;3.30;;;11.10;97.40;;;;;;5157139;27;20459;-78